sensor_id;sensor_type;location;lat;lon;timestamp;pressure;altitude;pressure_sealevel;temperature;humidity
31092;BME280;67728;53.122;12.776;2023-02-17T00:01:10;100955.19;;;5.70;87.67
31092;BME280;67728;53.122;12.776;2023-02-17T00:02:41;100962.03;;;5.69;87.84
31092;BME280;67728;53.122;12.776;2023-02-17T00:04:13;100957.72;;;5.67;88.03
31092;BME280;67728;53.122;12.776;2023-02-17T00:05:45;100956.03;;;5.67;88.23
31092;BME280;67728;53.122;12.776;2023-02-17T00:07:15;100952.56;;;5.67;88.09
31092;BME280;67728;53.122;12.776;2023-02-17T00:08:47;100955.97;;;5.66;87.92
31092;BME280;67728;53.122;12.776;2023-02-17T00:10:19;100946.53;;;5.63;87.93
31092;BME280;67728;53.122;12.776;2023-02-17T00:11:51;100949.13;;;5.65;88.54
31092;BME280;67728;53.122;12.776;2023-02-17T00:13:23;100944.84;;;5.67;88.76
31092;BME280;67728;53.122;12.776;2023-02-17T00:14:54;100940.56;;;5.69;88.66
31092;BME280;67728;53.122;12.776;2023-02-17T00:16:27;100931.13;;;5.68;88.80
31092;BME280;67728;53.122;12.776;2023-02-17T00:17:58;100932.00;;;5.67;89.09
31092;BME280;67728;53.122;12.776;2023-02-17T00:19:30;100933.69;;;5.65;89.05
31092;BME280;67728;53.122;12.776;2023-02-17T00:21:10;100926.84;;;5.67;89.26
31092;BME280;67728;53.122;12.776;2023-02-17T00:22:42;100922.56;;;5.69;89.11
31092;BME280;67728;53.122;12.776;2023-02-17T00:24:13;100924.28;;;5.68;89.30
31092;BME280;67728;53.122;12.776;2023-02-17T00:25:44;100917.41;;;5.67;89.20
31092;BME280;67728;53.122;12.776;2023-02-17T00:27:16;100914.84;;;5.69;88.98
31092;BME280;67728;53.122;12.776;2023-02-17T00:28:49;100915.72;;;5.71;88.82
31092;BME280;67728;53.122;12.776;2023-02-17T00:30:20;100908.84;;;5.70;88.83
31092;BME280;67728;53.122;12.776;2023-02-17T00:31:54;100908.84;;;5.71;89.04
31092;BME280;67728;53.122;12.776;2023-02-17T00:33:25;100903.75;;;5.73;89.22
31092;BME280;67728;53.122;12.776;2023-02-17T00:34:57;100913.16;;;5.72;89.08
31092;BME280;67728;53.122;12.776;2023-02-17T00:36:28;100903.72;;;5.74;89.04
31092;BME280;67728;53.122;12.776;2023-02-17T00:38:00;100904.59;;;5.75;88.85
31092;BME280;67728;53.122;12.776;2023-02-17T00:39:32;100908.88;;;5.76;88.71
31092;BME280;67728;53.122;12.776;2023-02-17T00:41:04;100898.59;;;5.76;88.91
31092;BME280;67728;53.122;12.776;2023-02-17T00:42:35;100893.44;;;5.76;89.03
31092;BME280;67728;53.122;12.776;2023-02-17T00:44:10;100887.44;;;5.77;89.00
31092;BME280;67728;53.122;12.776;2023-02-17T00:45:45;100886.59;;;5.79;89.14
31092;BME280;67728;53.122;12.776;2023-02-17T00:47:18;100888.34;;;5.80;89.13
31092;BME280;67728;53.122;12.776;2023-02-17T00:48:50;100883.19;;;5.82;88.59
31092;BME280;67728;53.122;12.776;2023-02-17T00:50:21;100882.34;;;5.84;88.84
31092;BME280;67728;53.122;12.776;2023-02-17T00:51:53;100885.81;;;5.85;88.81
31092;BME280;67728;53.122;12.776;2023-02-17T00:53:25;100883.25;;;5.85;89.16
31092;BME280;67728;53.122;12.776;2023-02-17T00:54:56;100888.41;;;5.85;88.95
31092;BME280;67728;53.122;12.776;2023-02-17T00:56:28;100884.97;;;5.86;88.98
31092;BME280;67728;53.122;12.776;2023-02-17T00:57:59;100881.56;;;5.88;88.83
31092;BME280;67728;53.122;12.776;2023-02-17T00:59:31;100878.13;;;5.88;88.69
31092;BME280;67728;53.122;12.776;2023-02-17T01:01:03;100878.13;;;5.88;88.54
31092;BME280;67728;53.122;12.776;2023-02-17T01:02:36;100871.25;;;5.90;89.13
31092;BME280;67728;53.122;12.776;2023-02-17T01:04:08;100872.13;;;5.90;89.02
31092;BME280;67728;53.122;12.776;2023-02-17T01:05:40;100873.84;;;5.93;88.92
31092;BME280;67728;53.122;12.776;2023-02-17T01:07:11;100871.25;;;5.90;88.75
31092;BME280;67728;53.122;12.776;2023-02-17T01:08:43;100878.13;;;5.89;88.84
31092;BME280;67728;53.122;12.776;2023-02-17T01:10:14;100869.56;;;5.89;88.97
31092;BME280;67728;53.122;12.776;2023-02-17T01:11:46;100865.28;;;5.94;88.54
31092;BME280;67728;53.122;12.776;2023-02-17T01:13:18;100875.59;;;5.94;88.58
31092;BME280;67728;53.122;12.776;2023-02-17T01:14:50;100873.84;;;5.93;88.86
31092;BME280;67728;53.122;12.776;2023-02-17T01:16:23;100876.44;;;5.93;88.95
31092;BME280;67728;53.122;12.776;2023-02-17T01:17:55;100876.44;;;5.91;89.15
31092;BME280;67728;53.122;12.776;2023-02-17T01:19:27;100870.44;;;5.91;89.03
31092;BME280;67728;53.122;12.776;2023-02-17T01:20:59;100872.13;;;5.90;88.87
31092;BME280;67728;53.122;12.776;2023-02-17T01:22:30;100866.13;;;5.88;89.13
31092;BME280;67728;53.122;12.776;2023-02-17T01:24:04;100865.28;;;5.91;88.96
31092;BME280;67728;53.122;12.776;2023-02-17T01:25:37;100858.41;;;5.91;89.08
31092;BME280;67728;53.122;12.776;2023-02-17T01:27:08;100858.38;;;5.90;89.04
31092;BME280;67728;53.122;12.776;2023-02-17T01:28:40;100858.38;;;5.90;89.46
31092;BME280;67728;53.122;12.776;2023-02-17T01:30:12;100858.41;;;5.88;89.06
31092;BME280;67728;53.122;12.776;2023-02-17T01:31:44;100858.41;;;5.91;89.32
31092;BME280;67728;53.122;12.776;2023-02-17T01:33:17;100859.28;;;5.92;89.27
31092;BME280;67728;53.122;12.776;2023-02-17T01:34:48;100853.25;;;5.90;89.70
31092;BME280;67728;53.122;12.776;2023-02-17T01:36:20;100856.69;;;5.90;89.76
31092;BME280;67728;53.122;12.776;2023-02-17T01:37:50;100847.25;;;5.91;89.13
31092;BME280;67728;53.122;12.776;2023-02-17T01:39:22;100837.81;;;5.93;89.65
31092;BME280;67728;53.122;12.776;2023-02-17T01:40:54;100838.69;;;5.92;89.48
31092;BME280;67728;53.122;12.776;2023-02-17T01:42:25;100836.13;;;5.93;89.34
31092;BME280;67728;53.122;12.776;2023-02-17T01:44:09;100831.81;;;5.91;89.40
31092;BME280;67728;53.122;12.776;2023-02-17T01:45:45;100832.69;;;5.91;89.41
31092;BME280;67728;53.122;12.776;2023-02-17T01:47:17;100818.09;;;5.92;89.49
31092;BME280;67728;53.122;12.776;2023-02-17T01:48:49;100825.81;;;5.93;89.77
31092;BME280;67728;53.122;12.776;2023-02-17T01:50:25;100822.38;;;5.93;89.78
31092;BME280;67728;53.122;12.776;2023-02-17T01:52:03;100814.66;;;5.93;89.39
31092;BME280;67728;53.122;12.776;2023-02-17T01:53:41;100808.66;;;5.95;89.63
31092;BME280;67728;53.122;12.776;2023-02-17T01:55:15;100805.22;;;5.95;89.65
31092;BME280;67728;53.122;12.776;2023-02-17T01:56:49;100794.94;;;5.98;89.25
31092;BME280;67728;53.122;12.776;2023-02-17T01:58:22;100794.94;;;5.98;89.44
31092;BME280;67728;53.122;12.776;2023-02-17T01:59:55;100790.69;;;6.00;89.82
31092;BME280;67728;53.122;12.776;2023-02-17T02:01:27;100790.66;;;6.01;89.57
31092;BME280;67728;53.122;12.776;2023-02-17T02:02:59;100779.50;;;5.99;89.71
31092;BME280;67728;53.122;12.776;2023-02-17T02:04:35;100769.22;;;6.01;89.78
31092;BME280;67728;53.122;12.776;2023-02-17T02:06:12;100764.91;;;6.03;89.44
31092;BME280;67728;53.122;12.776;2023-02-17T02:07:46;100767.50;;;6.01;90.00
31092;BME280;67728;53.122;12.776;2023-02-17T02:09:21;100767.50;;;6.00;89.95
31092;BME280;67728;53.122;12.776;2023-02-17T02:10:53;100754.63;;;6.00;89.70
31092;BME280;67728;53.122;12.776;2023-02-17T02:12:27;100756.34;;;6.03;90.00
31092;BME280;67728;53.122;12.776;2023-02-17T02:13:59;100761.50;;;6.04;89.87
31092;BME280;67728;53.122;12.776;2023-02-17T02:15:34;100758.94;;;6.04;89.94
31092;BME280;67728;53.122;12.776;2023-02-17T02:17:12;100749.47;;;6.06;89.67
31092;BME280;67728;53.122;12.776;2023-02-17T02:18:53;100743.47;;;6.04;89.89
31092;BME280;67728;53.122;12.776;2023-02-17T02:22:40;100745.22;;;6.05;89.79
31092;BME280;67728;53.122;12.776;2023-02-17T02:24:43;100735.75;;;6.09;89.79
31092;BME280;67728;53.122;12.776;2023-02-17T02:28:49;100730.63;;;6.12;89.34
31092;BME280;67728;53.122;12.776;2023-02-17T02:32:56;100722.91;;;6.13;89.87
31092;BME280;67728;53.122;12.776;2023-02-17T02:34:33;100716.88;;;6.11;90.00
31092;BME280;67728;53.122;12.776;2023-02-17T02:36:10;100711.75;;;6.13;89.74
31092;BME280;67728;53.122;12.776;2023-02-17T02:37:46;100710.03;;;6.13;90.17
31092;BME280;67728;53.122;12.776;2023-02-17T02:39:22;100712.59;;;6.15;89.60
31092;BME280;67728;53.122;12.776;2023-02-17T02:40:58;100699.75;;;6.16;89.53
31092;BME280;67728;53.122;12.776;2023-02-17T02:42:33;100698.91;;;6.19;90.27
31092;BME280;67728;53.122;12.776;2023-02-17T02:44:06;100702.31;;;6.16;90.23
31092;BME280;67728;53.122;12.776;2023-02-17T02:45:39;100694.59;;;6.18;89.98
31092;BME280;67728;53.122;12.776;2023-02-17T02:47:41;100698.03;;;6.20;90.05
31092;BME280;67728;53.122;12.776;2023-02-17T02:49:15;100697.16;;;6.19;90.50
31092;BME280;67728;53.122;12.776;2023-02-17T02:50:58;100691.19;;;6.22;90.03
31092;BME280;67728;53.122;12.776;2023-02-17T02:52:37;100698.91;;;6.26;89.94
31092;BME280;67728;53.122;12.776;2023-02-17T02:54:27;100683.44;;;6.26;90.20
31092;BME280;67728;53.122;12.776;2023-02-17T02:56:12;100680.00;;;6.26;89.88
31092;BME280;67728;53.122;12.776;2023-02-17T02:57:50;100687.75;;;6.29;89.86
31092;BME280;67728;53.122;12.776;2023-02-17T02:59:32;100679.16;;;6.27;89.72
31092;BME280;67728;53.122;12.776;2023-02-17T03:01:08;100682.59;;;6.29;90.28
31092;BME280;67728;53.122;12.776;2023-02-17T03:02:48;100684.31;;;6.31;90.43
31092;BME280;67728;53.122;12.776;2023-02-17T03:04:27;100680.88;;;6.34;89.85
31092;BME280;67728;53.122;12.776;2023-02-17T03:06:10;100675.75;;;6.32;90.46
31092;BME280;67728;53.122;12.776;2023-02-17T03:07:48;100680.00;;;6.33;90.38
31092;BME280;67728;53.122;12.776;2023-02-17T03:09:25;100677.44;;;6.36;90.00
31092;BME280;67728;53.122;12.776;2023-02-17T03:10:57;100678.28;;;6.38;90.29
31092;BME280;67728;53.122;12.776;2023-02-17T03:12:29;100678.28;;;6.38;90.13
31092;BME280;67728;53.122;12.776;2023-02-17T03:14:01;100679.16;;;6.39;89.88
31092;BME280;67728;53.122;12.776;2023-02-17T03:15:34;100683.44;;;6.38;90.05
31092;BME280;67728;53.122;12.776;2023-02-17T03:17:05;100683.44;;;6.38;90.56
31092;BME280;67728;53.122;12.776;2023-02-17T03:18:36;100680.88;;;6.38;90.35
31092;BME280;67728;53.122;12.776;2023-02-17T03:20:10;100684.31;;;6.39;90.44
31092;BME280;67728;53.122;12.776;2023-02-17T03:21:47;100682.59;;;6.42;90.34
31092;BME280;67728;53.122;12.776;2023-02-17T03:23:20;100677.47;;;6.42;89.90
31092;BME280;67728;53.122;12.776;2023-02-17T03:24:50;100674.88;;;6.42;90.64
31092;BME280;67728;53.122;12.776;2023-02-17T03:26:22;100668.00;;;6.47;90.41
31092;BME280;67728;53.122;12.776;2023-02-17T03:27:54;100660.25;;;6.49;90.62
31092;BME280;67728;53.122;12.776;2023-02-17T03:29:24;100662.00;;;6.45;90.19
31092;BME280;67728;53.122;12.776;2023-02-17T03:30:56;100667.16;;;6.45;90.43
31092;BME280;67728;53.122;12.776;2023-02-17T03:32:28;100667.13;;;6.41;90.38
31092;BME280;67728;53.122;12.776;2023-02-17T03:33:58;100659.44;;;6.48;90.05
31092;BME280;67728;53.122;12.776;2023-02-17T03:35:31;100656.84;;;6.48;90.20
31092;BME280;67728;53.122;12.776;2023-02-17T03:37:03;100662.88;;;6.50;90.67
31092;BME280;67728;53.122;12.776;2023-02-17T03:38:35;100653.41;;;6.49;90.00
31092;BME280;67728;53.122;12.776;2023-02-17T03:40:07;100649.97;;;6.49;90.24
31092;BME280;67728;53.122;12.776;2023-02-17T03:41:39;100648.25;;;6.51;90.65
31092;BME280;67728;53.122;12.776;2023-02-17T03:43:10;100647.41;;;6.58;90.58
31092;BME280;67728;53.122;12.776;2023-02-17T03:44:42;100645.66;;;6.57;90.49
31092;BME280;67728;53.122;12.776;2023-02-17T03:46:14;100638.78;;;6.54;90.02
31092;BME280;67728;53.122;12.776;2023-02-17T03:47:45;100636.22;;;6.54;90.30
31092;BME280;67728;53.122;12.776;2023-02-17T03:49:17;100638.78;;;6.57;90.12
31092;BME280;67728;53.122;12.776;2023-02-17T03:50:50;100639.69;;;6.59;90.01
31092;BME280;67728;53.122;12.776;2023-02-17T03:52:21;100637.09;;;6.59;90.01
31092;BME280;67728;53.122;12.776;2023-02-17T03:53:53;100633.66;;;6.60;90.67
31092;BME280;67728;53.122;12.776;2023-02-17T03:55:25;100638.81;;;6.59;90.09
31092;BME280;67728;53.122;12.776;2023-02-17T03:56:56;100632.78;;;6.58;90.54
31092;BME280;67728;53.122;12.776;2023-02-17T03:58:30;100638.81;;;6.59;90.63
31092;BME280;67728;53.122;12.776;2023-02-17T04:00:01;100636.22;;;6.57;90.72
31092;BME280;67728;53.122;12.776;2023-02-17T04:01:33;100638.78;;;6.57;90.47
31092;BME280;67728;53.122;12.776;2023-02-17T04:03:05;100631.94;;;6.59;90.08
31092;BME280;67728;53.122;12.776;2023-02-17T04:04:36;100631.06;;;6.60;90.71
31092;BME280;67728;53.122;12.776;2023-02-17T04:06:10;100629.34;;;6.62;90.72
31092;BME280;67728;53.122;12.776;2023-02-17T04:07:41;100625.94;;;6.62;90.47
31092;BME280;67728;53.122;12.776;2023-02-17T04:09:13;100625.06;;;6.60;90.43
31092;BME280;67728;53.122;12.776;2023-02-17T04:10:45;100630.22;;;6.63;90.05
31092;BME280;67728;53.122;12.776;2023-02-17T04:12:16;100630.22;;;6.61;90.63
31092;BME280;67728;53.122;12.776;2023-02-17T04:13:48;100628.50;;;6.63;90.29
31092;BME280;67728;53.122;12.776;2023-02-17T04:15:20;100624.19;;;6.64;90.37
31092;BME280;67728;53.122;12.776;2023-02-17T04:16:50;100631.06;;;6.68;90.52
31092;BME280;67728;53.122;12.776;2023-02-17T04:18:22;100622.50;;;6.68;90.69
31092;BME280;67728;53.122;12.776;2023-02-17T04:19:54;100617.31;;;6.69;90.16
31092;BME280;67728;53.122;12.776;2023-02-17T04:21:27;100616.47;;;6.69;90.02
31092;BME280;67728;53.122;12.776;2023-02-17T04:22:57;100609.59;;;6.65;90.38
31092;BME280;67728;53.122;12.776;2023-02-17T04:24:29;100615.59;;;6.63;90.78
31092;BME280;67728;53.122;12.776;2023-02-17T04:26:01;100613.03;;;6.67;90.86
31092;BME280;67728;53.122;12.776;2023-02-17T04:27:32;100616.47;;;6.66;90.19
31092;BME280;67728;53.122;12.776;2023-02-17T04:29:04;100622.47;;;6.69;90.76
31092;BME280;67728;53.122;12.776;2023-02-17T04:30:36;100619.91;;;6.72;90.19
31092;BME280;67728;53.122;12.776;2023-02-17T04:32:07;100623.34;;;6.73;90.65
31092;BME280;67728;53.122;12.776;2023-02-17T04:33:39;100620.75;;;6.73;90.69
31092;BME280;67728;53.122;12.776;2023-02-17T04:35:10;100624.16;;;6.73;90.32
31092;BME280;67728;53.122;12.776;2023-02-17T04:36:43;100629.31;;;6.76;90.64
31092;BME280;67728;53.122;12.776;2023-02-17T04:38:15;100623.34;;;6.76;90.29
31092;BME280;67728;53.122;12.776;2023-02-17T04:39:47;100623.34;;;6.76;90.51
31092;BME280;67728;53.122;12.776;2023-02-17T04:41:18;100625.91;;;6.77;90.84
31092;BME280;67728;53.122;12.776;2023-02-17T04:42:50;100625.03;;;6.77;90.71
31092;BME280;67728;53.122;12.776;2023-02-17T04:44:22;100630.19;;;6.77;90.39
31092;BME280;67728;53.122;12.776;2023-02-17T04:45:53;100622.47;;;6.83;90.54
31092;BME280;67728;53.122;12.776;2023-02-17T04:47:24;100613.84;;;6.85;90.48
31092;BME280;67728;53.122;12.776;2023-02-17T04:48:56;100606.13;;;6.81;90.72
31092;BME280;67728;53.122;12.776;2023-02-17T04:50:27;100608.72;;;6.79;90.63
31092;BME280;67728;53.122;12.776;2023-02-17T04:51:59;100608.69;;;6.82;89.90
31092;BME280;67728;53.122;12.776;2023-02-17T04:53:31;100615.56;;;6.82;90.55
31092;BME280;67728;53.122;12.776;2023-02-17T04:55:03;100610.44;;;6.80;90.42
31092;BME280;67728;53.122;12.776;2023-02-17T04:56:34;100605.28;;;6.83;90.12
31092;BME280;67728;53.122;12.776;2023-02-17T04:58:07;100603.53;;;6.85;89.84
31092;BME280;67728;53.122;12.776;2023-02-17T04:59:39;100609.56;;;6.89;90.12
31092;BME280;67728;53.122;12.776;2023-02-17T05:01:10;100595.78;;;6.87;90.27
31092;BME280;67728;53.122;12.776;2023-02-17T05:02:42;100587.22;;;6.85;90.52
31092;BME280;67728;53.122;12.776;2023-02-17T05:04:14;100591.50;;;6.84;90.30
31092;BME280;67728;53.122;12.776;2023-02-17T05:05:45;100594.09;;;6.86;90.06
31092;BME280;67728;53.122;12.776;2023-02-17T05:07:19;100585.50;;;6.85;90.17
31092;BME280;67728;53.122;12.776;2023-02-17T05:08:51;100586.38;;;6.86;90.34
31092;BME280;67728;53.122;12.776;2023-02-17T05:10:23;100589.81;;;6.86;90.00
31092;BME280;67728;53.122;12.776;2023-02-17T05:11:54;100579.47;;;6.85;90.24
31092;BME280;67728;53.122;12.776;2023-02-17T05:13:25;100579.47;;;6.85;89.88
31092;BME280;67728;53.122;12.776;2023-02-17T05:14:57;100578.59;;;6.87;90.28
31092;BME280;67728;53.122;12.776;2023-02-17T05:16:28;100578.59;;;6.87;90.32
31092;BME280;67728;53.122;12.776;2023-02-17T05:18:00;100580.34;;;6.88;90.75
31092;BME280;67728;53.122;12.776;2023-02-17T05:19:31;100582.06;;;6.88;89.91
31092;BME280;67728;53.122;12.776;2023-02-17T05:21:03;100577.75;;;6.85;90.07
31092;BME280;67728;53.122;12.776;2023-02-17T05:22:36;100576.06;;;6.86;90.27
31092;BME280;67728;53.122;12.776;2023-02-17T05:24:08;100582.91;;;6.88;90.43
31092;BME280;67728;53.122;12.776;2023-02-17T05:25:39;100581.19;;;6.89;90.54
31092;BME280;67728;53.122;12.776;2023-02-17T05:27:11;100572.59;;;6.91;89.78
31092;BME280;67728;53.122;12.776;2023-02-17T05:28:43;100572.59;;;6.90;89.94
31092;BME280;67728;53.122;12.776;2023-02-17T05:30:14;100574.34;;;6.89;89.92
31092;BME280;67728;53.122;12.776;2023-02-17T05:31:46;100570.00;;;6.93;90.24
31092;BME280;67728;53.122;12.776;2023-02-17T05:33:18;100565.72;;;6.92;90.30
31092;BME280;67728;53.122;12.776;2023-02-17T05:34:49;100569.16;;;6.94;89.99
31092;BME280;67728;53.122;12.776;2023-02-17T05:36:20;100564.00;;;6.91;90.06
31092;BME280;67728;53.122;12.776;2023-02-17T05:37:54;100549.38;;;6.93;90.42
31092;BME280;67728;53.122;12.776;2023-02-17T05:39:26;100551.13;;;6.89;90.37
31092;BME280;67728;53.122;12.776;2023-02-17T05:40:57;100542.50;;;6.93;89.85
31092;BME280;67728;53.122;12.776;2023-02-17T05:42:29;100546.81;;;6.94;89.87
31092;BME280;67728;53.122;12.776;2023-02-17T05:44:00;100545.06;;;6.95;89.87
31092;BME280;67728;53.122;12.776;2023-02-17T05:45:32;100548.53;;;6.94;89.92
31092;BME280;67728;53.122;12.776;2023-02-17T05:47:04;100547.66;;;6.95;90.62
31092;BME280;67728;53.122;12.776;2023-02-17T05:48:35;100551.97;;;6.97;90.04
31092;BME280;67728;53.122;12.776;2023-02-17T05:50:08;100561.41;;;6.97;90.42
31092;BME280;67728;53.122;12.776;2023-02-17T05:51:39;100553.66;;;7.01;90.54
31092;BME280;67728;53.122;12.776;2023-02-17T05:53:12;100537.31;;;6.98;90.26
31092;BME280;67728;53.122;12.776;2023-02-17T05:54:44;100546.75;;;7.00;90.52
31092;BME280;67728;53.122;12.776;2023-02-17T05:56:16;100539.88;;;7.01;89.86
31092;BME280;67728;53.122;12.776;2023-02-17T05:57:47;100542.47;;;6.98;89.78
31092;BME280;67728;53.122;12.776;2023-02-17T05:59:19;100534.75;;;6.98;90.46
31092;BME280;67728;53.122;12.776;2023-02-17T06:00:50;100536.47;;;6.96;89.71
31092;BME280;67728;53.122;12.776;2023-02-17T06:02:22;100533.06;;;6.94;89.79
31092;BME280;67728;53.122;12.776;2023-02-17T06:03:53;100533.03;;;6.98;90.29
31092;BME280;67728;53.122;12.776;2023-02-17T06:05:24;100527.00;;;6.98;90.20
31092;BME280;67728;53.122;12.776;2023-02-17T06:06:56;100530.47;;;6.95;90.42
31092;BME280;67728;53.122;12.776;2023-02-17T06:08:29;100527.91;;;6.97;90.36
31092;BME280;67728;53.122;12.776;2023-02-17T06:10:00;100523.59;;;6.96;90.00
31092;BME280;67728;53.122;12.776;2023-02-17T06:11:32;100524.44;;;6.98;89.77
31092;BME280;67728;53.122;12.776;2023-02-17T06:13:03;100522.72;;;6.98;90.29
31092;BME280;67728;53.122;12.776;2023-02-17T06:14:34;100530.47;;;6.97;89.86
31092;BME280;67728;53.122;12.776;2023-02-17T06:16:06;100524.41;;;7.01;90.24
31092;BME280;67728;53.122;12.776;2023-02-17T06:17:37;100520.97;;;7.03;90.07
31092;BME280;67728;53.122;12.776;2023-02-17T06:19:09;100525.25;;;7.03;90.35
31092;BME280;67728;53.122;12.776;2023-02-17T06:20:41;100514.97;;;7.01;89.96
31092;BME280;67728;53.122;12.776;2023-02-17T06:22:12;100509.81;;;7.01;90.01
31092;BME280;67728;53.122;12.776;2023-02-17T06:23:46;100504.66;;;7.01;89.91
31092;BME280;67728;53.122;12.776;2023-02-17T06:25:17;100506.38;;;7.02;89.94
31092;BME280;67728;53.122;12.776;2023-02-17T06:26:49;100496.06;;;7.04;89.82
31092;BME280;67728;53.122;12.776;2023-02-17T06:28:21;100493.47;;;7.05;90.75
31092;BME280;67728;53.122;12.776;2023-02-17T06:29:52;100484.84;;;7.06;90.19
31092;BME280;67728;53.122;12.776;2023-02-17T06:31:24;100489.16;;;7.06;90.59
31092;BME280;67728;53.122;12.776;2023-02-17T06:32:55;100485.72;;;7.07;90.35
31092;BME280;67728;53.122;12.776;2023-02-17T06:34:28;100489.16;;;7.06;90.43
31092;BME280;67728;53.122;12.776;2023-02-17T06:36:00;100487.47;;;7.05;90.59
31092;BME280;67728;53.122;12.776;2023-02-17T06:37:31;100484.03;;;7.04;90.21
31092;BME280;67728;53.122;12.776;2023-02-17T06:39:04;100484.00;;;7.07;90.37
31092;BME280;67728;53.122;12.776;2023-02-17T06:40:36;100488.31;;;7.07;89.96
31092;BME280;67728;53.122;12.776;2023-02-17T06:42:07;100488.28;;;7.08;90.64
31092;BME280;67728;53.122;12.776;2023-02-17T06:43:38;100483.13;;;7.08;90.86
31092;BME280;67728;53.122;12.776;2023-02-17T06:45:10;100487.44;;;7.08;90.24
31092;BME280;67728;53.122;12.776;2023-02-17T06:46:41;100482.28;;;7.08;90.26
31092;BME280;67728;53.122;12.776;2023-02-17T06:48:15;100482.28;;;7.06;90.55
31092;BME280;67728;53.122;12.776;2023-02-17T06:49:47;100494.31;;;7.09;90.19
31092;BME280;67728;53.122;12.776;2023-02-17T06:51:18;100487.41;;;7.12;90.14
31092;BME280;67728;53.122;12.776;2023-02-17T06:52:50;100485.69;;;7.13;90.68
31092;BME280;67728;53.122;12.776;2023-02-17T06:54:23;100481.41;;;7.13;90.54
31092;BME280;67728;53.122;12.776;2023-02-17T06:55:54;100480.53;;;7.16;90.23
31092;BME280;67728;53.122;12.776;2023-02-17T06:57:26;100478.75;;;7.24;91.16
31092;BME280;67728;53.122;12.776;2023-02-17T06:58:58;100484.78;;;7.21;90.56
31092;BME280;67728;53.122;12.776;2023-02-17T07:00:29;100481.34;;;7.19;90.40
31092;BME280;67728;53.122;12.776;2023-02-17T07:02:01;100479.66;;;7.17;90.82
31092;BME280;67728;53.122;12.776;2023-02-17T07:03:33;100474.47;;;7.20;91.26
31092;BME280;67728;53.122;12.776;2023-02-17T07:05:05;100474.47;;;7.23;90.85
31092;BME280;67728;53.122;12.776;2023-02-17T07:06:37;100477.00;;;7.24;90.84
31092;BME280;67728;53.122;12.776;2023-02-17T07:08:08;100469.28;;;7.26;91.21
31092;BME280;67728;53.122;12.776;2023-02-17T07:09:42;100468.41;;;7.29;90.87
31092;BME280;67728;53.122;12.776;2023-02-17T07:11:14;100465.81;;;7.29;90.73
31092;BME280;67728;53.122;12.776;2023-02-17T07:12:45;100470.13;;;7.28;90.83
31092;BME280;67728;53.122;12.776;2023-02-17T07:14:17;100462.41;;;7.30;90.45
31092;BME280;67728;53.122;12.776;2023-02-17T07:15:49;100464.97;;;7.28;90.91
31092;BME280;67728;53.122;12.776;2023-02-17T07:17:20;100460.63;;;7.33;90.74
31092;BME280;67728;53.122;12.776;2023-02-17T07:18:52;100470.94;;;7.33;91.15
31092;BME280;67728;53.122;12.776;2023-02-17T07:20:23;100464.09;;;7.29;91.28
31092;BME280;67728;53.122;12.776;2023-02-17T07:21:55;100464.94;;;7.33;90.46
31092;BME280;67728;53.122;12.776;2023-02-17T07:23:27;100464.94;;;7.34;91.19
31092;BME280;67728;53.122;12.776;2023-02-17T07:25:00;100464.06;;;7.37;91.17
31092;BME280;67728;53.122;12.776;2023-02-17T07:26:34;100468.38;;;7.33;91.14
31092;BME280;67728;53.122;12.776;2023-02-17T07:28:05;100473.50;;;7.36;91.00
31092;BME280;67728;53.122;12.776;2023-02-17T07:29:37;100470.06;;;7.40;91.35
31092;BME280;67728;53.122;12.776;2023-02-17T07:31:10;100466.59;;;7.43;91.01
31092;BME280;67728;53.122;12.776;2023-02-17T07:32:42;100473.47;;;7.44;90.91
31092;BME280;67728;53.122;12.776;2023-02-17T07:34:14;100470.03;;;7.43;91.29
31092;BME280;67728;53.122;12.776;2023-02-17T07:35:46;100464.03;;;7.43;91.25
31092;BME280;67728;53.122;12.776;2023-02-17T07:37:17;100465.72;;;7.45;91.17
31092;BME280;67728;53.122;12.776;2023-02-17T07:38:51;100463.13;;;7.44;91.01
31092;BME280;67728;53.122;12.776;2023-02-17T07:40:24;100462.28;;;7.45;90.84
31092;BME280;67728;53.122;12.776;2023-02-17T07:41:55;100464.81;;;7.51;90.65
31092;BME280;67728;53.122;12.776;2023-02-17T07:43:30;100457.94;;;7.50;91.14
31092;BME280;67728;53.122;12.776;2023-02-17T07:45:02;100454.47;;;7.54;90.57
31092;BME280;67728;53.122;12.776;2023-02-17T07:46:34;100460.47;;;7.56;91.04
31092;BME280;67728;53.122;12.776;2023-02-17T07:48:06;100459.63;;;7.55;90.96
31092;BME280;67728;53.122;12.776;2023-02-17T07:49:37;100455.34;;;7.53;91.10
31092;BME280;67728;53.122;12.776;2023-02-17T07:51:11;100461.34;;;7.56;90.09
31092;BME280;67728;53.122;12.776;2023-02-17T07:52:43;100455.31;;;7.56;91.22
31092;BME280;67728;53.122;12.776;2023-02-17T07:54:15;100454.47;;;7.57;91.04
31092;BME280;67728;53.122;12.776;2023-02-17T07:55:49;100452.72;;;7.57;90.54
31092;BME280;67728;53.122;12.776;2023-02-17T07:57:21;100450.13;;;7.59;90.83
31092;BME280;67728;53.122;12.776;2023-02-17T07:58:52;100448.44;;;7.59;90.63
31092;BME280;67728;53.122;12.776;2023-02-17T08:00:24;100449.25;;;7.60;90.86
31092;BME280;67728;53.122;12.776;2023-02-17T08:01:55;100447.56;;;7.59;91.13
31092;BME280;67728;53.122;12.776;2023-02-17T08:03:27;100438.94;;;7.61;91.09
31092;BME280;67728;53.122;12.776;2023-02-17T08:04:59;100429.44;;;7.65;91.04
31092;BME280;67728;53.122;12.776;2023-02-17T08:06:30;100430.31;;;7.62;90.88
31092;BME280;67728;53.122;12.776;2023-02-17T08:08:02;100432.88;;;7.67;90.58
31092;BME280;67728;53.122;12.776;2023-02-17T08:09:51;100421.63;;;7.72;90.83
31092;BME280;67728;53.122;12.776;2023-02-17T08:11:42;100412.16;;;7.73;90.44
31092;BME280;67728;53.122;12.776;2023-02-17T08:13:31;100410.41;;;7.76;90.83